Pagrindinis puslapis
METAR-TAF:

METAR-TAF

Oro uostai :

Maragheh, Iranas

platuma: 37-20-55N, ilguma: 046-07-35E, Aukštis: 1340 m

Dabartinis oras

Ataskaita buvo paskelbta 22 minutes, ne 05:00 UTC
Vėjas 4 kt iš Rytų
Temperatūra 12°C
Drėgmė 88%
Slėgis 1017 hPa
Matomumas: 3500 m
Mažai debesys ne aukštis 800 ft
Apsiniaukę ne aukštis 7000 ft
lietus, rūkana,

METAR: OITM 220500Z 09004KT 3500 RA BR FEW008 OVC070 12/10 Q1017

Laikas: 09:52 (05:22 UTC)


TAF: trūkstamas

Orai ataskaitas ir orų prognozės (METAR, TAF).

turimą stotys yra geltonos ir raudonos taškus žemėlapyje.

Perkelti pele per norėdami pamatyti stoties vardą.

Tada spustelėkite, norėdami matyti oro stebėjimo ir prognozės.

Norėdami pakeisti žemėlapį: spustelėkite ant žalios mygtukų su juodo kryžiaus žemyn,; žalią mygtuką su brūkšneliu, jei norite nutolinti; arba žalių rodyklių gretimoms žemėlapius.


METAR-TAF: